createdAt,value
2023-03-19T00:01:32.829Z,99759.06
2023-03-19T00:05:36.147Z,99755.44
2023-03-19T00:09:39.650Z,99751.84
2023-03-19T00:13:44.075Z,99737.75
2023-03-19T00:17:47.134Z,99730.66
2023-03-19T00:21:50.247Z,99734.94
2023-03-19T00:25:55.603Z,99734.00
2023-03-19T00:30:00.361Z,99726.94
2023-03-19T00:34:03.642Z,99740.84
2023-03-19T00:38:07.043Z,99738.19
2023-03-19T00:42:10.571Z,99747.78
2023-03-19T00:46:15.827Z,99734.66
2023-03-19T00:50:20.154Z,99739.94
2023-03-19T00:54:23.171Z,99739.06
2023-03-19T00:58:26.409Z,99745.19
2023-03-19T01:02:32.105Z,99742.56
2023-03-19T01:06:35.139Z,99739.06
2023-03-19T01:10:38.238Z,99734.72
2023-03-19T01:14:41.580Z,99736.44
2023-03-19T01:18:46.680Z,99730.34
2023-03-19T01:22:49.734Z,99727.69
2023-03-19T01:26:53.024Z,99729.38
2023-03-19T01:31:07.941Z,99724.13
2023-03-19T01:35:39.769Z,99731.03
2023-03-19T01:39:43.198Z,99723.16
2023-03-19T01:43:48.888Z,99723.94
2023-03-19T01:48:22.254Z,99723.91
2023-03-19T01:52:37.948Z,99725.59
2023-03-19T01:57:09.373Z,99732.47
2023-03-19T02:01:51.802Z,99719.28
2023-03-19T02:05:57.802Z,99721.84
2023-03-19T02:10:04.593Z,99713.94
2023-03-19T02:14:09.702Z,99709.44
2023-03-19T02:18:14.222Z,99706.81
2023-03-19T02:22:22.725Z,99707.50
2023-03-19T02:26:30.920Z,99720.44
2023-03-19T02:30:39.336Z,99715.97
2023-03-19T02:34:46.611Z,99730.72
2023-03-19T02:38:50.916Z,99736.75
2023-03-19T02:42:55.342Z,99735.00
2023-03-19T02:46:59.685Z,99731.50
2023-03-19T02:51:02.921Z,99748.97
2023-03-19T02:55:08.084Z,99739.34
2023-03-19T02:59:13.336Z,99736.66
2023-03-19T03:03:17.280Z,99747.84
2023-03-19T03:07:20.996Z,99743.41
2023-03-19T03:11:24.116Z,99735.53
2023-03-19T03:15:29.170Z,99741.66
2023-03-19T03:19:32.512Z,99750.25
2023-03-19T03:23:35.557Z,99757.13
2023-03-19T03:27:39.298Z,99756.22
2023-03-19T03:31:43.787Z,99759.50
2023-03-19T03:35:47.253Z,99782.19
2023-03-19T03:39:51.019Z,99787.41
2023-03-19T03:43:55.080Z,99795.16
2023-03-19T03:47:59.540Z,99803.81
2023-03-19T03:52:02.612Z,99794.16
2023-03-19T03:56:06.600Z,99803.72
2023-03-19T04:00:11.197Z,99790.59
2023-03-19T04:04:18.740Z,99792.22
2023-03-19T04:08:21.901Z,99784.34
2023-03-19T04:12:25.066Z,99794.63
2023-03-19T04:16:28.809Z,99799.72
2023-03-19T04:20:34.232Z,99812.75
2023-03-19T04:24:37.839Z,99812.63
2023-03-19T04:28:41.105Z,99812.41
2023-03-19T04:32:45.461Z,99797.56
2023-03-19T04:36:50.942Z,99794.13
2023-03-19T04:40:54.314Z,99805.41
2023-03-19T04:44:57.760Z,99811.38
2023-03-19T04:49:01.501Z,99808.63
2023-03-19T04:53:08.001Z,99811.25
2023-03-19T04:57:12.534Z,99813.03
2023-03-19T05:01:18.303Z,99798.19
2023-03-19T05:05:34.658Z,99809.34
2023-03-19T05:09:46.246Z,99808.38
2023-03-19T05:13:50.395Z,99797.00
2023-03-19T05:17:53.841Z,99809.19
2023-03-19T05:22:06.401Z,99809.13
2023-03-19T05:26:11.676Z,99799.53
2023-03-19T05:30:50.343Z,99794.13
2023-03-19T05:34:58.448Z,99798.53
2023-03-19T05:39:03.991Z,99812.41
2023-03-19T05:43:13.338Z,99815.91
2023-03-19T05:47:17.366Z,99802.97
2023-03-19T05:51:26.483Z,99805.75
2023-03-19T05:55:29.988Z,99823.97
2023-03-19T05:59:40.785Z,99818.72
2023-03-19T06:04:15.987Z,99824.97
2023-03-19T06:08:20.154Z,99844.16
2023-03-19T06:12:33.430Z,99838.28
2023-03-19T06:17:10.298Z,99836.63
2023-03-19T06:21:14.479Z,99839.34
2023-03-19T06:25:17.689Z,99853.47
2023-03-19T06:29:20.775Z,99854.56
2023-03-19T06:33:33.757Z,99854.00
2023-03-19T06:37:37.794Z,99853.22
2023-03-19T06:41:41.996Z,99859.50
2023-03-19T06:45:50.719Z,99852.81
2023-03-19T06:49:55.397Z,99854.75
2023-03-19T06:53:58.419Z,99865.47
2023-03-19T06:58:01.460Z,99870.00
2023-03-19T07:02:05.588Z,99864.00
2023-03-19T07:06:10.322Z,99879.91
2023-03-19T07:10:13.812Z,99873.97
2023-03-19T07:14:16.829Z,99872.47
2023-03-19T07:18:19.870Z,99854.41
2023-03-19T07:22:24.267Z,99852.84
2023-03-19T07:26:27.741Z,99860.94
2023-03-19T07:30:30.836Z,99869.91
2023-03-19T07:34:33.891Z,99881.56
2023-03-19T07:38:38.542Z,99892.38
2023-03-19T07:42:44.950Z,99897.75
2023-03-19T07:46:48.880Z,99897.13
2023-03-19T07:50:52.657Z,99891.16
2023-03-19T07:54:57.407Z,99900.03
2023-03-19T07:59:00.815Z,99894.13
2023-03-19T08:03:03.876Z,99905.66
2023-03-19T08:07:07.176Z,99912.75
2023-03-19T08:11:11.818Z,99914.59
2023-03-19T08:15:14.827Z,99900.81
2023-03-19T08:19:18.765Z,99900.16
2023-03-19T08:23:21.979Z,99898.63
2023-03-19T08:27:26.705Z,99905.91
2023-03-19T08:31:30.504Z,99914.81
2023-03-19T08:35:33.590Z,99900.88
2023-03-19T08:39:36.630Z,99910.63
2023-03-19T08:43:41.322Z,99917.72
2023-03-19T08:47:44.926Z,99897.59
2023-03-19T08:51:48.466Z,99888.03
2023-03-19T08:55:55.199Z,99895.09
2023-03-19T08:59:59.663Z,99894.28
2023-03-19T09:04:02.653Z,99894.38
2023-03-19T09:08:05.998Z,99895.34
2023-03-19T09:12:10.496Z,99879.66
2023-03-19T09:16:15.010Z,99892.88
2023-03-19T09:20:18.252Z,99902.56
2023-03-19T09:24:21.472Z,99900.81
2023-03-19T09:28:25.764Z,99901.72
2023-03-19T09:32:30.261Z,99909.69
2023-03-19T09:36:33.279Z,99902.75
2023-03-19T09:40:40.084Z,99908.03
2023-03-19T09:44:46.234Z,99907.19
2023-03-19T09:48:57.535Z,99890.53
2023-03-19T09:53:06.815Z,99892.31
2023-03-19T09:57:13.140Z,99873.00
2023-03-19T10:01:26.726Z,99877.41
2023-03-19T10:05:43.558Z,99880.06
2023-03-19T10:10:00.051Z,99870.41
2023-03-19T10:14:19.193Z,99879.22
2023-03-19T10:18:27.170Z,99878.31
2023-03-19T10:22:37.105Z,99879.19
2023-03-19T10:26:40.764Z,99876.50
2023-03-19T10:30:49.667Z,99865.94
2023-03-19T10:34:54.049Z,99861.53
2023-03-19T10:38:58.597Z,99859.75
2023-03-19T10:43:14.594Z,99871.22
2023-03-19T10:47:20.073Z,99865.94
2023-03-19T10:51:27.084Z,99872.91
2023-03-19T10:55:33.263Z,99865.84
2023-03-19T10:59:39.352Z,99864.94
2023-03-19T11:03:52.753Z,99862.28
2023-03-19T11:08:01.283Z,99858.72
2023-03-19T11:12:17.970Z,99851.66
2023-03-19T11:16:21.032Z,99842.84
2023-03-19T11:20:28.669Z,99846.31
2023-03-19T11:24:37.540Z,99855.94
2023-03-19T11:28:44.717Z,99851.53
2023-03-19T11:33:21.149Z,99840.88
2023-03-19T11:37:32.588Z,99842.59
2023-03-19T11:41:52.492Z,99838.22
2023-03-19T11:46:05.146Z,99826.69
2023-03-19T11:50:20.386Z,99824.81
2023-03-19T11:54:28.912Z,99826.47
2023-03-19T11:58:57.950Z,99820.22
2023-03-19T12:03:37.975Z,99815.78
2023-03-19T12:07:47.541Z,99807.75
2023-03-19T12:11:54.828Z,99794.44
2023-03-19T12:16:07.766Z,99796.19
2023-03-19T12:20:38.275Z,99800.63
2023-03-19T12:24:58.662Z,99796.19
2023-03-19T12:29:09.854Z,99802.41
2023-03-19T12:33:30.373Z,99792.69
2023-03-19T12:37:40.529Z,99781.22
2023-03-19T12:41:46.216Z,99774.97
2023-03-19T12:45:53.865Z,99774.94
2023-03-19T12:50:02.840Z,99766.97
2023-03-19T12:54:13.678Z,99776.63
2023-03-19T12:58:22.411Z,99765.97
2023-03-19T13:02:32.298Z,99762.38
2023-03-19T13:06:38.276Z,99759.63
2023-03-19T13:10:42.693Z,99761.31
2023-03-19T13:14:53.739Z,99747.22
2023-03-19T13:19:05.607Z,99745.41
2023-03-19T13:23:13.746Z,99746.25
2023-03-19T13:27:22.497Z,99743.53
2023-03-19T13:31:27.588Z,99741.69
2023-03-19T13:35:38.858Z,99741.59
2023-03-19T13:39:44.183Z,99729.97
2023-03-19T13:43:55.926Z,99731.75
2023-03-19T13:48:01.145Z,99738.84
2023-03-19T13:52:48.128Z,99738.78
2023-03-19T13:57:07.825Z,99735.25
2023-03-19T14:01:34.313Z,99726.53
2023-03-19T14:05:37.858Z,99717.72
2023-03-19T14:09:43.505Z,99719.41
2023-03-19T14:13:50.470Z,99709.69
2023-03-19T14:18:02.344Z,99714.09
2023-03-19T14:22:21.787Z,99709.59
2023-03-19T14:26:28.875Z,99701.63
2023-03-19T14:30:36.569Z,99698.06
2023-03-19T14:34:43.880Z,99693.56
2023-03-19T14:38:51.866Z,99690.81
2023-03-19T14:43:02.091Z,99696.06
2023-03-19T14:47:20.597Z,99692.50
2023-03-19T14:51:56.762Z,99690.66
2023-03-19T14:56:10.786Z,99704.75
2023-03-19T15:00:17.498Z,99696.72
2023-03-19T15:04:22.930Z,99694.06
2023-03-19T15:14:26.150Z,99690.50
2023-03-19T15:18:29.813Z,99689.56
2023-03-19T15:22:34.541Z,99696.63
2023-03-19T15:26:39.377Z,99688.66
2023-03-19T15:30:54.902Z,99692.16
2023-03-19T15:35:03.446Z,99702.81
2023-03-19T15:39:10.463Z,99708.16
2023-03-19T15:43:14.612Z,99701.16
2023-03-19T15:47:22.952Z,99701.22
2023-03-19T15:51:27.374Z,99710.94
2023-03-19T15:55:30.831Z,99699.44
2023-03-19T15:59:33.937Z,99704.78
2023-03-19T16:03:42.641Z,99717.13
2023-03-19T16:07:45.899Z,99720.56
2023-03-19T16:11:49.181Z,99716.97
2023-03-19T16:15:57.120Z,99733.66
2023-03-19T16:20:04.807Z,99723.00
2023-03-19T16:24:15.847Z,99729.16
2023-03-19T16:28:23.802Z,99723.84
2023-03-19T16:32:28.404Z,99730.97
2023-03-19T16:36:34.075Z,99734.53
2023-03-19T16:40:47.946Z,99734.59
2023-03-19T16:44:50.890Z,99739.94
2023-03-19T16:48:53.791Z,99733.81
2023-03-19T16:52:59.614Z,99742.75
2023-03-19T16:57:02.613Z,99747.28
2023-03-19T17:01:14.340Z,99752.69
2023-03-19T17:05:17.976Z,99747.53
2023-03-19T17:09:23.452Z,99758.25
2023-03-19T17:13:30.128Z,99769.75
2023-03-19T17:17:33.432Z,99764.59
2023-03-19T17:21:36.627Z,99769.19
2023-03-19T17:25:41.712Z,99763.13
2023-03-19T17:29:44.814Z,99768.50
2023-03-19T17:33:48.045Z,99769.50
2023-03-19T17:37:52.738Z,99772.19
2023-03-19T17:41:57.514Z,99772.28
2023-03-19T17:46:00.651Z,99773.28
2023-03-19T17:50:03.704Z,99770.78
2023-03-19T17:54:11.608Z,99765.56
2023-03-19T17:58:18.356Z,99772.66
2023-03-19T18:02:26.968Z,99783.31
2023-03-19T18:06:34.521Z,99783.34
2023-03-19T18:10:37.547Z,99779.84
2023-03-19T18:14:41.976Z,99769.34
2023-03-19T18:18:45.159Z,99781.72
2023-03-19T18:22:48.406Z,99770.31
2023-03-19T18:26:51.381Z,99773.06
2023-03-19T18:30:56.052Z,99773.09
2023-03-19T18:34:59.448Z,99764.34
2023-03-19T18:39:02.651Z,99771.44
2023-03-19T18:43:05.577Z,99782.06
2023-03-19T18:47:14.895Z,99789.19
2023-03-19T18:51:17.860Z,99789.25
2023-03-19T18:55:24.267Z,99785.75
2023-03-19T18:59:30.405Z,99789.34
2023-03-19T19:03:38.286Z,99793.75
2023-03-19T19:07:41.229Z,99793.75
2023-03-19T19:11:47.609Z,99791.13
2023-03-19T19:15:51.273Z,99798.16
2023-03-19T19:19:55.857Z,99793.75
2023-03-19T19:23:58.852Z,99799.94
2023-03-19T19:28:04.214Z,99795.56
2023-03-19T19:32:17.277Z,99804.38
2023-03-19T19:36:24.746Z,99803.50
2023-03-19T19:40:30.524Z,99805.28
2023-03-19T19:44:33.558Z,99809.69
2023-03-19T19:48:37.137Z,99811.47
2023-03-19T19:52:41.411Z,99808.81
2023-03-19T19:56:44.462Z,99808.81
2023-03-19T20:01:02.377Z,99816.78
2023-03-19T20:05:07.319Z,99816.75
2023-03-19T20:09:11.616Z,99810.63
2023-03-19T20:13:24.951Z,99820.28
2023-03-19T20:17:28.298Z,99817.69
2023-03-19T20:21:32.078Z,99808.03
2023-03-19T20:25:37.681Z,99819.44
2023-03-19T20:29:41.506Z,99823.81
2023-03-19T20:33:44.688Z,99822.06
2023-03-19T20:37:47.858Z,99818.53
2023-03-19T20:41:55.277Z,99820.28
2023-03-19T20:45:59.581Z,99826.44
2023-03-19T20:50:02.746Z,99825.56
2023-03-19T20:54:06.573Z,99817.66
2023-03-19T20:58:17.651Z,99828.19
2023-03-19T21:02:22.741Z,99832.56
2023-03-19T21:06:26.317Z,99833.47
2023-03-19T21:10:32.788Z,99827.28
2023-03-19T21:14:37.184Z,99823.75
2023-03-19T21:18:40.288Z,99832.53
2023-03-19T21:22:43.434Z,99827.22
2023-03-19T21:26:47.109Z,99825.47
2023-03-19T21:30:52.309Z,99830.72
2023-03-19T21:34:55.974Z,99827.19
2023-03-19T21:38:58.894Z,99829.75
2023-03-19T21:43:03.894Z,99826.25
2023-03-19T21:47:13.084Z,99826.19
2023-03-19T21:51:17.328Z,99834.09
2023-03-19T21:55:20.834Z,99841.94
2023-03-19T21:59:28.109Z,99848.94
2023-03-19T22:03:32.507Z,99846.25
2023-03-19T22:07:36.374Z,99851.50
2023-03-19T22:11:41.897Z,99845.34
2023-03-19T22:15:44.947Z,99850.59
2023-03-19T22:19:49.247Z,99846.13
2023-03-19T22:23:53.010Z,99842.56
2023-03-19T22:27:56.009Z,99844.28
2023-03-19T22:31:59.236Z,99838.09
2023-03-19T22:36:03.937Z,99838.91
2023-03-19T22:40:07.827Z,99842.34
2023-03-19T22:44:24.175Z,99842.31
2023-03-19T22:48:28.362Z,99850.13
2023-03-19T22:52:33.210Z,99836.06
2023-03-19T22:56:36.149Z,99847.41
2023-03-19T23:00:39.514Z,99847.31
2023-03-19T23:04:42.713Z,99857.78
2023-03-19T23:08:47.163Z,99853.34
2023-03-19T23:12:50.138Z,99859.44
2023-03-19T23:16:53.746Z,99860.25
2023-03-19T23:20:57.792Z,99854.06
2023-03-19T23:25:02.461Z,99854.94
2023-03-19T23:29:07.845Z,99858.38
2023-03-19T23:33:12.528Z,99866.22
2023-03-19T23:37:15.759Z,99851.25
2023-03-19T23:41:23.878Z,99861.69
2023-03-19T23:45:34.300Z,99857.22
2023-03-19T23:49:37.828Z,99851.91
2023-03-19T23:53:42.048Z,99855.38
2023-03-19T23:57:47.369Z,99849.25
